Time,TemperatureF,DewpointF,PressureIn,WindDirection,WindDirectionDegrees,WindSpeedMPH,WindSpeedGustMPH,Humidity,HourlyPrecipIn,Conditions,Clouds,dailyrainin,SoftwareType,DateUTC
2013-04-16 00:03:00,44.0,37.0,30.38,SW,236,3.0,8.0,77,0.00,,,0.00,,2013-04-16 04:03:00,
2013-04-16 00:12:00,44.0,37.0,30.38,SW,236,3.0,8.0,77,0.00,,,0.00,,2013-04-16 04:12:00,
2013-04-16 00:23:00,44.0,37.0,30.38,SSW,207,3.0,6.0,77,0.00,,,0.00,,2013-04-16 04:23:00,
2013-04-16 00:33:00,43.0,36.0,30.38,South,191,3.0,5.0,77,0.00,,,0.00,,2013-04-16 04:33:00,
2013-04-16 00:42:00,43.0,36.0,30.38,South,191,3.0,5.0,77,0.00,,,0.00,,2013-04-16 04:42:00,
2013-04-16 00:52:00,43.0,36.0,30.38,SSE,163,2.0,5.0,77,0.00,,,0.00,,2013-04-16 04:52:00,
2013-04-16 01:02:00,43.0,36.0,30.39,SSE,162,2.0,3.0,77,0.00,,,0.00,,2013-04-16 05:02:00,
2013-04-16 01:12:00,43.0,36.0,30.39,SSE,162,2.0,3.0,77,0.00,,,0.00,,2013-04-16 05:12:00,
2013-04-16 01:22:00,42.0,35.0,30.39,SSE,165,2.0,4.0,77,0.00,,,0.00,,2013-04-16 05:22:00,
2013-04-16 01:32:00,42.0,36.0,30.39,SSE,163,2.0,3.0,78,0.00,,,0.00,,2013-04-16 05:32:00,
2013-04-16 01:42:00,42.0,36.0,30.39,SSE,163,2.0,3.0,78,0.00,,,0.00,,2013-04-16 05:42:00,
2013-04-16 01:52:00,42.0,36.0,30.39,SSE,158,1.0,2.0,78,0.00,,,0.00,,2013-04-16 05:52:00,
2013-04-16 02:02:00,41.0,36.0,30.39,South,184,1.0,2.0,81,0.00,,,0.00,,2013-04-16 06:02:00,
2013-04-16 02:12:00,41.0,36.0,30.39,South,184,1.0,2.0,81,0.00,,,0.00,,2013-04-16 06:12:00,
2013-04-16 02:22:00,40.0,35.0,30.39,South,191,0.0,3.0,81,0.00,,,0.00,,2013-04-16 06:22:00,
2013-04-16 02:32:00,41.0,36.0,30.38,SE,129,1.0,4.0,81,0.00,,,0.00,,2013-04-16 06:32:00,
2013-04-16 02:42:00,41.0,36.0,30.38,SE,129,1.0,4.0,81,0.00,,,0.00,,2013-04-16 06:42:00,
2013-04-16 02:52:00,41.0,36.0,30.37,SE,142,2.0,4.0,81,0.00,,,0.00,,2013-04-16 06:52:00,
2013-04-16 03:02:00,41.0,36.0,30.37,SSE,149,3.0,5.0,81,0.00,,,0.00,,2013-04-16 07:02:00,
2013-04-16 03:12:00,41.0,36.0,30.37,SSE,149,3.0,5.0,81,0.00,,,0.00,,2013-04-16 07:12:00,
2013-04-16 03:22:00,41.0,36.0,30.37,SSE,158,2.0,4.0,81,0.00,,,0.00,,2013-04-16 07:22:00,
2013-04-16 03:32:00,40.0,35.0,30.37,South,180,2.0,4.0,82,0.00,,,0.00,,2013-04-16 07:32:00,
2013-04-16 03:42:00,40.0,35.0,30.37,South,180,2.0,4.0,82,0.00,,,0.00,,2013-04-16 07:42:00,
2013-04-16 03:53:00,40.0,35.0,30.37,SSE,147,2.0,5.0,82,0.00,,,0.00,,2013-04-16 07:53:00,
2013-04-16 04:02:00,40.0,35.0,30.38,SE,133,2.0,4.0,82,0.00,,,0.00,,2013-04-16 08:02:00,
2013-04-16 04:12:00,40.0,35.0,30.38,SE,133,2.0,4.0,82,0.00,,,0.00,,2013-04-16 08:12:00,
2013-04-16 04:22:00,40.0,35.0,30.38,SSW,193,2.0,4.0,83,0.00,,,0.00,,2013-04-16 08:22:00,
2013-04-16 04:32:00,40.0,36.0,30.39,South,176,2.0,4.0,84,0.00,,,0.00,,2013-04-16 08:32:00,
2013-04-16 04:42:00,40.0,36.0,30.39,South,176,2.0,4.0,84,0.00,,,0.00,,2013-04-16 08:42:00,
2013-04-16 04:52:00,39.0,35.0,30.38,SE,145,1.0,4.0,85,0.00,,,0.00,,2013-04-16 08:52:00,
2013-04-16 05:02:00,38.0,34.0,30.38,South,172,0.0,0.0,85,0.00,,,0.00,,2013-04-16 09:02:00,
2013-04-16 05:12:00,38.0,34.0,30.38,South,172,0.0,0.0,85,0.00,,,0.00,,2013-04-16 09:12:00,
2013-04-16 05:22:00,37.0,34.0,30.38,SSW,212,0.0,0.0,88,0.00,,,0.00,,2013-04-16 09:22:00,
2013-04-16 05:33:00,37.0,34.0,30.38,SW,219,1.0,3.0,89,0.00,,,0.00,,2013-04-16 09:33:00,
2013-04-16 05:43:00,37.0,34.0,30.38,SW,219,1.0,3.0,89,0.00,,,0.00,,2013-04-16 09:43:00,
2013-04-16 05:52:00,37.0,34.0,30.38,SSW,205,2.0,3.0,90,0.00,,,0.00,,2013-04-16 09:52:00,
2013-04-16 06:03:00,38.0,35.0,30.38,SE,143,1.0,3.0,90,0.00,,,0.00,,2013-04-16 10:03:00,
2013-04-16 06:13:00,38.0,35.0,30.38,SE,143,1.0,3.0,90,0.00,,,0.00,,2013-04-16 10:13:00,
2013-04-16 06:23:00,39.0,37.0,30.38,SE,143,2.0,3.0,91,0.00,,,0.00,,2013-04-16 10:23:00,
2013-04-16 06:33:00,39.0,36.0,30.38,South,172,1.0,3.0,90,0.00,,,0.00,,2013-04-16 10:33:00,
2013-04-16 06:42:00,39.0,36.0,30.38,South,172,1.0,3.0,90,0.00,,,0.00,,2013-04-16 10:42:00,
2013-04-16 06:52:00,38.0,36.0,30.38,SSW,205,2.0,4.0,91,0.00,,,0.00,,2013-04-16 10:52:00,
2013-04-16 07:02:00,39.0,37.0,30.38,SSW,194,2.0,5.0,92,0.00,,,0.00,,2013-04-16 11:02:00,
2013-04-16 07:12:00,39.0,37.0,30.38,SSW,194,2.0,5.0,92,0.00,,,0.00,,2013-04-16 11:12:00,
2013-04-16 07:22:00,40.0,38.0,30.38,SSE,157,3.0,5.0,91,0.00,,,0.00,,2013-04-16 11:22:00,
2013-04-16 07:32:00,41.0,38.0,30.38,ESE,117,2.0,7.0,89,0.00,,,0.00,,2013-04-16 11:32:00,
2013-04-16 07:42:00,41.0,38.0,30.38,ESE,117,2.0,7.0,89,0.00,,,0.00,,2013-04-16 11:42:00,
2013-04-16 07:52:00,42.0,38.0,30.37,ESE,114,2.0,7.0,87,0.00,,,0.00,,2013-04-16 11:52:00,
2013-04-16 08:02:00,44.0,39.0,30.37,SSW,208,4.0,7.0,83,0.00,,,0.00,,2013-04-16 12:02:00,
2013-04-16 08:12:00,44.0,39.0,30.37,SSW,208,4.0,7.0,83,0.00,,,0.00,,2013-04-16 12:12:00,
2013-04-16 08:22:00,45.0,39.0,30.37,SE,131,3.0,10.0,78,0.00,,,0.00,,2013-04-16 12:22:00,
2013-04-16 08:32:00,46.0,39.0,30.37,ESE,120,5.0,9.0,75,0.00,,,0.00,,2013-04-16 12:32:00,
2013-04-16 08:42:00,46.0,39.0,30.37,ESE,120,5.0,9.0,75,0.00,,,0.00,,2013-04-16 12:42:00,
2013-04-16 08:52:00,47.0,38.0,30.37,SW,215,5.0,16.0,71,0.00,,,0.00,,2013-04-16 12:52:00,
2013-04-16 09:02:00,48.0,39.0,30.36,SW,231,3.0,10.0,70,0.00,,,0.00,,2013-04-16 13:02:00,
2013-04-16 09:12:00,48.0,39.0,30.36,SW,231,3.0,10.0,70,0.00,,,0.00,,2013-04-16 13:12:00,
2013-04-16 09:22:00,49.0,38.0,30.36,SW,231,6.0,13.0,66,0.00,,,0.00,,2013-04-16 13:22:00,
2013-04-16 09:32:00,50.0,39.0,30.36,South,169,9.0,15.0,66,0.00,,,0.00,,2013-04-16 13:32:00,
2013-04-16 09:42:00,50.0,39.0,30.36,South,169,9.0,15.0,66,0.00,,,0.00,,2013-04-16 13:42:00,
2013-04-16 09:52:00,51.0,39.0,30.35,SSE,167,6.0,13.0,63,0.00,,,0.00,,2013-04-16 13:52:00,
2013-04-16 10:02:00,51.0,39.0,30.35,SW,228,10.0,15.0,63,0.00,,,0.00,,2013-04-16 14:02:00,
2013-04-16 10:12:00,51.0,39.0,30.35,SW,228,10.0,15.0,63,0.00,,,0.00,,2013-04-16 14:12:00,
2013-04-16 10:22:00,52.0,39.0,30.35,SE,143,4.0,12.0,62,0.00,,,0.00,,2013-04-16 14:22:00,
2013-04-16 10:32:00,54.0,40.0,30.33,SE,132,7.0,16.0,58,0.00,,,0.00,,2013-04-16 14:32:00,
2013-04-16 10:42:00,54.0,40.0,30.33,SE,132,7.0,16.0,58,0.00,,,0.00,,2013-04-16 14:42:00,
2013-04-16 10:52:00,54.0,39.0,30.33,SSE,159,9.0,16.0,57,0.00,,,0.00,,2013-04-16 14:52:00,
2013-04-16 11:02:00,55.0,39.0,30.32,South,190,10.0,17.0,55,0.00,,,0.00,,2013-04-16 15:02:00,
2013-04-16 11:12:00,55.0,39.0,30.32,South,190,10.0,17.0,55,0.00,,,0.00,,2013-04-16 15:12:00,
2013-04-16 11:22:00,56.0,40.0,30.32,SE,134,9.0,14.0,54,0.00,,,0.00,,2013-04-16 15:22:00,
2013-04-16 11:33:00,56.0,40.0,30.32,SE,145,9.0,17.0,54,0.00,,,0.00,,2013-04-16 15:33:00,
2013-04-16 11:43:00,56.0,40.0,30.32,SE,145,9.0,17.0,54,0.00,,,0.00,,2013-04-16 15:43:00,
2013-04-16 11:53:00,57.0,41.0,30.30,SW,226,4.0,13.0,55,0.00,,,0.00,,2013-04-16 15:53:00,
2013-04-16 12:03:00,58.0,41.0,30.29,SE,142,8.0,16.0,53,0.00,,,0.00,,2013-04-16 16:03:00,
2013-04-16 12:13:00,58.0,41.0,30.29,SE,142,8.0,16.0,53,0.00,,,0.00,,2013-04-16 16:13:00,
2013-04-16 12:23:00,59.0,41.0,30.28,SE,129,7.0,11.0,52,0.00,,,0.00,,2013-04-16 16:23:00,
2013-04-16 12:32:00,59.0,41.0,30.26,South,186,9.0,14.0,51,0.00,,,0.00,,2013-04-16 16:32:00,
2013-04-16 12:42:00,59.0,41.0,30.26,South,186,9.0,14.0,51,0.00,,,0.00,,2013-04-16 16:42:00,
2013-04-16 12:52:00,60.0,41.0,30.25,SSE,161,8.0,17.0,50,0.00,,,0.00,,2013-04-16 16:52:00,
2013-04-16 13:02:00,61.0,42.0,30.24,ESE,118,6.0,16.0,49,0.00,,,0.00,,2013-04-16 17:02:00,
2013-04-16 13:12:00,61.0,42.0,30.24,ESE,118,6.0,16.0,49,0.00,,,0.00,,2013-04-16 17:12:00,
2013-04-16 13:22:00,61.0,42.0,30.22,South,186,6.0,14.0,50,0.00,,,0.00,,2013-04-16 17:22:00,
2013-04-16 13:32:00,61.0,42.0,30.22,SSW,207,8.0,16.0,50,0.00,,,0.00,,2013-04-16 17:32:00,
2013-04-16 13:43:00,61.0,42.0,30.22,SSW,207,8.0,16.0,50,0.00,,,0.00,,2013-04-16 17:43:00,
2013-04-16 13:53:00,63.0,43.0,30.21,SSE,150,7.0,15.0,48,0.00,,,0.00,,2013-04-16 17:53:00,
2013-04-16 14:02:00,64.0,44.0,30.19,SSW,203,8.0,15.0,49,0.00,,,0.00,,2013-04-16 18:02:00,
2013-04-16 14:12:00,64.0,44.0,30.19,SSW,203,8.0,15.0,49,0.00,,,0.00,,2013-04-16 18:12:00,
2013-04-16 14:22:00,64.0,44.0,30.20,South,189,9.0,21.0,48,0.00,,,0.00,,2013-04-16 18:22:00,
2013-04-16 14:32:00,65.0,45.0,30.19,SSW,207,9.0,19.0,48,0.00,,,0.00,,2013-04-16 18:32:00,
2013-04-16 14:42:00,65.0,45.0,30.19,SSW,207,9.0,19.0,48,0.00,,,0.00,,2013-04-16 18:42:00,
2013-04-16 14:52:00,64.0,44.0,30.18,SE,134,11.0,21.0,49,0.00,,,0.00,,2013-04-16 18:52:00,
2013-04-16 15:02:00,65.0,45.0,30.16,SE,142,9.0,19.0,49,0.00,,,0.00,,2013-04-16 19:02:00,
2013-04-16 15:12:00,65.0,45.0,30.16,SE,142,9.0,19.0,49,0.00,,,0.00,,2013-04-16 19:12:00,
2013-04-16 15:22:00,64.0,45.0,30.16,SSW,197,6.0,26.0,50,0.00,,,0.00,,2013-04-16 19:22:00,
2013-04-16 15:32:00,64.0,45.0,30.14,SSE,168,13.0,25.0,50,0.00,,,0.00,,2013-04-16 19:32:00,
2013-04-16 15:42:00,64.0,45.0,30.14,SSE,168,13.0,25.0,50,0.00,,,0.00,,2013-04-16 19:42:00,
2013-04-16 15:52:00,64.0,45.0,30.12,SW,233,8.0,23.0,50,0.00,,,0.00,,2013-04-16 19:52:00,
2013-04-16 16:02:00,64.0,45.0,30.14,SE,146,6.0,17.0,50,0.00,,,0.00,,2013-04-16 20:02:00,
2013-04-16 16:12:00,64.0,45.0,30.14,SE,146,6.0,17.0,50,0.00,,,0.00,,2013-04-16 20:12:00,
2013-04-16 16:22:00,63.0,45.0,30.14,SSE,155,10.0,18.0,51,0.00,,,0.00,,2013-04-16 20:22:00,
2013-04-16 16:32:00,62.0,45.0,30.14,SE,143,6.0,11.0,53,0.00,,,0.00,,2013-04-16 20:32:00,
2013-04-16 16:42:00,62.0,45.0,30.14,SE,143,6.0,11.0,53,0.00,,,0.00,,2013-04-16 20:42:00,
2013-04-16 16:52:00,60.0,44.0,30.13,SSE,157,5.0,16.0,56,0.00,,,0.00,,2013-04-16 20:52:00,
2013-04-16 17:02:00,60.0,44.0,30.11,South,188,5.0,10.0,55,0.00,,,0.00,,2013-04-16 21:02:00,
2013-04-16 17:12:00,60.0,44.0,30.11,South,188,5.0,10.0,55,0.00,,,0.00,,2013-04-16 21:12:00,
2013-04-16 17:22:00,61.0,44.0,30.10,SSE,156,12.0,26.0,54,0.00,,,0.00,,2013-04-16 21:22:00,
2013-04-16 17:32:00,60.0,45.0,30.09,SSE,155,11.0,20.0,57,0.00,,,0.00,,2013-04-16 21:32:00,
2013-04-16 17:43:00,60.0,45.0,30.09,SSE,155,11.0,20.0,57,0.00,,,0.00,,2013-04-16 21:43:00,
2013-04-16 17:53:00,59.0,45.0,30.09,South,190,9.0,20.0,60,0.00,,,0.00,,2013-04-16 21:53:00,
2013-04-16 18:03:00,58.0,45.0,30.10,SW,226,9.0,20.0,62,0.00,,,0.00,,2013-04-16 22:03:00,
2013-04-16 18:13:00,58.0,45.0,30.10,SW,226,9.0,20.0,62,0.00,,,0.00,,2013-04-16 22:13:00,
2013-04-16 18:22:00,58.0,46.0,30.10,West,278,6.0,12.0,64,0.00,,,0.00,,2013-04-16 22:22:00,
2013-04-16 18:33:00,58.0,46.0,30.09,SE,124,7.0,14.0,65,0.00,,,0.00,,2013-04-16 22:33:00,
2013-04-16 18:43:00,58.0,46.0,30.09,SE,124,7.0,14.0,65,0.00,,,0.00,,2013-04-16 22:43:00,
2013-04-16 18:52:00,58.0,46.0,30.09,SE,144,6.0,13.0,65,0.00,,,0.00,,2013-04-16 22:52:00,
2013-04-16 19:02:00,58.0,47.0,30.07,South,191,5.0,14.0,66,0.00,,,0.00,,2013-04-16 23:02:00,
2013-04-16 19:12:00,58.0,47.0,30.07,South,191,5.0,14.0,66,0.00,,,0.00,,2013-04-16 23:12:00,
2013-04-16 19:22:00,58.0,47.0,30.06,South,183,12.0,23.0,68,0.00,,,0.00,,2013-04-16 23:22:00,
2013-04-16 19:32:00,58.0,48.0,30.06,SSE,167,8.0,26.0,69,0.00,,,0.00,,2013-04-16 23:32:00,
2013-04-16 19:43:00,58.0,48.0,30.06,SSE,167,8.0,26.0,69,0.00,,,0.00,,2013-04-16 23:43:00,
2013-04-16 19:52:00,57.0,47.0,30.07,SSW,213,7.0,16.0,70,0.00,,,0.00,,2013-04-16 23:52:00,
2013-04-16 20:02:00,57.0,48.0,30.07,SW,214,5.0,14.0,71,0.00,,,0.00,,2013-04-17 00:02:00,
2013-04-16 20:12:00,57.0,48.0,30.07,SW,214,5.0,14.0,71,0.00,,,0.00,,2013-04-17 00:12:00,
2013-04-16 20:22:00,57.0,48.0,30.07,South,181,7.0,14.0,72,0.00,,,0.00,,2013-04-17 00:22:00,
2013-04-16 20:32:00,56.0,47.0,30.06,South,173,6.0,12.0,73,0.00,,,0.00,,2013-04-17 00:32:00,
2013-04-16 20:42:00,56.0,47.0,30.06,South,173,6.0,12.0,73,0.00,,,0.00,,2013-04-17 00:42:00,
2013-04-16 20:52:00,57.0,49.0,30.06,SSE,162,7.0,17.0,74,0.00,,,0.00,,2013-04-17 00:52:00,
2013-04-16 21:02:00,57.0,49.0,30.06,SSW,197,8.0,15.0,75,0.00,,,0.00,,2013-04-17 01:02:00,
2013-04-16 21:12:00,57.0,49.0,30.06,SSW,197,8.0,15.0,75,0.00,,,0.00,,2013-04-17 01:12:00,
2013-04-16 21:22:00,56.0,48.0,30.06,SE,125,9.0,23.0,75,0.00,,,0.00,,2013-04-17 01:22:00,
2013-04-16 21:32:00,57.0,49.0,30.06,SW,215,7.0,14.0,75,0.00,,,0.00,,2013-04-17 01:32:00,
2013-04-16 21:42:00,57.0,49.0,30.06,SW,215,7.0,14.0,75,0.00,,,0.00,,2013-04-17 01:42:00,
2013-04-16 21:52:00,56.0,49.0,30.03,SSE,153,7.0,14.0,76,0.00,,,0.00,,2013-04-17 01:52:00,
2013-04-16 22:02:00,57.0,50.0,30.03,South,179,6.0,14.0,76,0.00,,,0.00,,2013-04-17 02:02:00,
2013-04-16 22:12:00,57.0,50.0,30.03,South,179,6.0,14.0,76,0.00,,,0.00,,2013-04-17 02:12:00,
2013-04-16 22:22:00,56.0,49.0,30.03,SSW,212,7.0,13.0,77,0.00,,,0.00,,2013-04-17 02:22:00,
2013-04-16 22:32:00,57.0,50.0,30.03,SSE,156,9.0,18.0,78,0.00,,,0.00,,2013-04-17 02:32:00,
2013-04-16 22:42:00,57.0,50.0,30.03,SSE,156,9.0,18.0,78,0.00,,,0.00,,2013-04-17 02:42:00,
2013-04-16 22:52:00,57.0,51.0,30.02,SW,225,10.0,20.0,79,0.00,,,0.00,,2013-04-17 02:52:00,
2013-04-16 23:02:00,57.0,51.0,30.02,South,179,12.0,20.0,79,0.00,,,0.00,,2013-04-17 03:02:00,
2013-04-16 23:12:00,57.0,51.0,30.02,South,179,12.0,20.0,79,0.00,,,0.00,,2013-04-17 03:12:00,
2013-04-16 23:22:00,57.0,51.0,30.02,SSE,160,7.0,16.0,79,0.00,,,0.00,,2013-04-17 03:22:00,
2013-04-16 23:33:00,57.0,51.0,30.01,SSW,201,9.0,17.0,79,0.00,,,0.00,,2013-04-17 03:33:00,
2013-04-16 23:42:00,57.0,51.0,30.01,SSW,201,9.0,17.0,79,0.00,,,0.00,,2013-04-17 03:42:00,
2013-04-16 23:53:00,57.0,51.0,30.03,WSW,238,8.0,15.0,79,0.00,,,0.00,,2013-04-17 03:53:00,